Time;durP1;ratioP1;P1;durP2;ratioP2;P2;SDS_P1;SDS_P2;PMS_P1;PMS_P2;Temp;Humidity;BMP_temperature;BMP_pressure;BME280_temperature;BME280_humidity;BME280_pressure;Samples;Min_cycle;Max_cycle;Signal;HPM_P1;HPM_P2
2021/11/23 00:00:38;;;;;;;57.90;34.53;;;8.50;99.90;;;;;;5057220;28;20265;-93
2021/11/23 00:03:05;;;;;;;63.10;35.15;;;8.60;99.90;;;;;;5037374;28;20189;-93
2021/11/23 00:05:32;;;;;;;62.33;33.22;;;8.60;99.90;;;;;;5057118;28;20184;-92
2021/11/23 00:07:58;;;;;;;56.10;32.47;;;8.60;99.90;;;;;;5037192;28;20197;-93
2021/11/23 00:10:23;;;;;;;60.93;31.80;;;8.60;99.90;;;;;;5040205;28;20255;-93
2021/11/23 00:12:49;;;;;;;61.77;30.50;;;8.60;99.90;;;;;;5059239;28;20232;-93
2021/11/23 00:15:15;;;;;;;46.93;28.57;;;8.60;99.90;;;;;;5040844;28;20189;-93
2021/11/23 00:17:41;;;;;;;54.37;29.30;;;8.70;99.90;;;;;;5058309;28;20647;-93
2021/11/23 00:20:07;;;;;;;55.15;29.88;;;8.70;99.90;;;;;;5040340;28;20694;-93
2021/11/23 00:22:33;;;;;;;49.85;29.50;;;8.70;99.90;;;;;;5040280;28;20643;-93
2021/11/23 00:25:00;;;;;;;47.80;29.17;;;8.70;99.90;;;;;;5042919;28;20219;-93
2021/11/23 00:27:26;;;;;;;50.50;28.73;;;8.70;99.90;;;;;;5042896;28;20201;-92
2021/11/23 00:29:55;;;;;;;53.13;28.97;;;8.70;99.90;;;;;;5057850;28;20674;-92
2021/11/23 00:32:21;;;;;;;53.30;28.35;;;8.70;99.90;;;;;;5039778;28;20697;-93
2021/11/23 00:34:47;;;;;;;51.83;28.70;;;8.60;99.90;;;;;;5040399;28;20173;-93
2021/11/23 00:37:12;;;;;;;50.70;29.90;;;8.60;99.90;;;;;;5062792;28;20401;-92
2021/11/23 00:39:38;;;;;;;54.17;28.83;;;8.60;99.90;;;;;;5044773;28;20182;-91
2021/11/23 00:42:04;;;;;;;50.90;30.47;;;8.60;99.90;;;;;;5040924;28;20271;-93
2021/11/23 00:44:29;;;;;;;50.17;28.43;;;8.60;99.90;;;;;;5057304;28;20192;-91
2021/11/23 00:46:55;;;;;;;53.17;28.20;;;8.60;99.90;;;;;;5039737;28;20197;-92
2021/11/23 00:49:21;;;;;;;56.77;32.37;;;8.60;99.90;;;;;;5039520;28;20176;-93
2021/11/23 00:51:47;;;;;;;50.83;29.20;;;8.60;99.90;;;;;;5057408;28;20236;-93
2021/11/23 00:54:13;;;;;;;55.95;30.00;;;8.60;99.90;;;;;;5040697;28;20174;-93
2021/11/23 00:56:39;;;;;;;45.83;28.63;;;8.60;99.90;;;;;;5039982;28;20231;-92
2021/11/23 00:59:05;;;;;;;50.40;30.15;;;8.50;99.90;;;;;;5039415;28;20431;-92
2021/11/23 01:01:31;;;;;;;60.53;33.00;;;8.50;99.90;;;;;;5039332;28;20206;-93
2021/11/23 01:03:57;;;;;;;53.70;30.40;;;8.50;99.90;;;;;;5039145;28;20397;-93
2021/11/23 01:06:23;;;;;;;56.22;31.60;;;8.40;99.90;;;;;;5041219;28;20949;-92
2021/11/23 01:08:49;;;;;;;55.90;31.07;;;8.40;99.90;;;;;;5062092;28;20178;-92
2021/11/23 01:11:17;;;;;;;54.53;29.60;;;8.40;99.90;;;;;;5039094;28;20558;-93
2021/11/23 01:13:44;;;;;;;53.97;31.48;;;8.40;99.90;;;;;;5039229;28;20435;-93
2021/11/23 01:16:10;;;;;;;53.30;29.67;;;8.30;99.90;;;;;;5039070;28;20205;-92
2021/11/23 01:18:37;;;;;;;51.53;31.27;;;8.30;99.90;;;;;;5056384;28;20228;-92
2021/11/23 01:21:04;;;;;;;52.95;31.27;;;8.30;99.90;;;;;;5038102;28;20182;-93
2021/11/23 01:23:30;;;;;;;56.42;32.70;;;8.30;99.90;;;;;;5041460;28;20170;-92
2021/11/23 01:25:56;;;;;;;52.77;31.20;;;8.20;99.90;;;;;;5041316;28;20251;-93
2021/11/23 01:28:22;;;;;;;52.53;30.67;;;8.20;99.90;;;;;;5041218;28;20447;-93
2021/11/23 01:30:49;;;;;;;52.33;30.15;;;8.20;99.90;;;;;;5040001;28;20569;-92
2021/11/23 01:33:16;;;;;;;48.75;28.73;;;8.20;99.90;;;;;;5063209;28;20170;-92
2021/11/23 01:35:41;;;;;;;49.30;29.73;;;8.10;99.90;;;;;;5041793;28;20281;-90
2021/11/23 01:38:07;;;;;;;50.73;30.10;;;8.10;99.90;;;;;;5039094;28;20247;-93
2021/11/23 01:40:33;;;;;;;50.63;29.20;;;8.10;99.90;;;;;;5038818;28;20424;-92
2021/11/23 01:43:05;;;;;;;50.70;29.00;;;8.10;99.90;;;;;;5038427;28;20432;-93
2021/11/23 01:45:34;;;;;;;51.88;28.60;;;8.10;99.90;;;;;;5038549;28;20410;-92
2021/11/23 01:47:59;;;;;;;50.13;30.27;;;8.00;99.90;;;;;;5038831;28;20216;-92
2021/11/23 01:50:26;;;;;;;51.20;28.77;;;8.00;99.90;;;;;;5041355;28;20315;-93
2021/11/23 01:52:52;;;;;;;46.88;27.90;;;7.90;99.90;;;;;;5038240;28;20198;-93
2021/11/23 01:55:17;;;;;;;44.73;27.30;;;7.90;99.90;;;;;;5056158;28;20378;-93
2021/11/23 01:57:44;;;;;;;50.60;27.80;;;7.90;99.90;;;;;;5038211;28;20198;-92
2021/11/23 02:00:11;;;;;;;48.45;27.35;;;7.90;99.90;;;;;;5038462;28;20204;-92
2021/11/23 02:02:37;;;;;;;50.78;27.55;;;7.90;99.90;;;;;;5039413;28;20748;-93
2021/11/23 02:05:03;;;;;;;43.92;25.77;;;7.80;99.90;;;;;;5057947;28;20254;-92
2021/11/23 02:07:29;;;;;;;44.92;25.90;;;7.80;99.90;;;;;;5056837;28;20201;-93
2021/11/23 02:09:55;;;;;;;44.77;26.07;;;7.80;99.90;;;;;;5047345;28;20205;-92
2021/11/23 02:12:21;;;;;;;44.33;24.87;;;7.70;99.90;;;;;;5055571;28;20433;-92
2021/11/23 02:14:48;;;;;;;43.38;25.40;;;7.70;99.90;;;;;;5040014;28;20185;-93
2021/11/23 02:17:13;;;;;;;40.40;25.17;;;7.70;99.90;;;;;;5056344;28;20678;-92
2021/11/23 02:19:45;;;;;;;39.80;23.97;;;7.60;99.90;;;;;;5037669;28;20260;-92
2021/11/23 02:22:11;;;;;;;40.67;25.05;;;7.60;99.90;;;;;;5055349;28;20202;-91
2021/11/23 02:24:36;;;;;;;43.20;24.53;;;7.60;99.90;;;;;;5037838;28;20178;-92
2021/11/23 02:27:02;;;;;;;35.93;21.80;;;7.50;99.90;;;;;;5037905;28;20240;-91
2021/11/23 02:29:28;;;;;;;39.30;22.60;;;7.50;99.90;;;;;;5040195;28;20193;-90
2021/11/23 02:31:53;;;;;;;34.67;21.37;;;7.50;99.90;;;;;;5039224;28;20240;-92
2021/11/23 02:34:19;;;;;;;34.40;20.67;;;7.50;99.90;;;;;;5060418;28;20181;-91
2021/11/23 02:36:45;;;;;;;42.50;21.90;;;7.40;99.90;;;;;;5037878;28;20355;-93
2021/11/23 02:39:10;;;;;;;37.17;22.00;;;7.40;99.90;;;;;;5061276;28;20166;-92
2021/11/23 02:41:38;;;;;;;35.17;21.03;;;7.40;99.90;;;;;;5055521;28;20193;-93
2021/11/23 02:44:06;;;;;;;40.63;21.50;;;7.40;99.90;;;;;;5039189;28;20177;-92
2021/11/23 02:46:32;;;;;;;37.05;21.73;;;7.40;99.90;;;;;;5037806;28;20209;-93
2021/11/23 02:48:58;;;;;;;36.00;20.73;;;7.40;99.90;;;;;;5037187;28;20185;-91
2021/11/23 02:51:26;;;;;;;34.47;20.93;;;7.40;99.90;;;;;;5055355;28;20214;-92
2021/11/23 02:53:52;;;;;;;31.65;21.08;;;7.30;99.90;;;;;;5037346;28;20182;-93
2021/11/23 02:56:18;;;;;;;30.60;19.27;;;7.30;99.90;;;;;;5055214;28;20270;-92
2021/11/23 02:58:47;;;;;;;34.70;21.80;;;7.30;99.90;;;;;;5038838;28;20184;-93
2021/11/23 03:01:15;;;;;;;30.80;18.55;;;7.30;99.90;;;;;;5055342;28;20194;-92
2021/11/23 03:03:41;;;;;;;33.47;20.73;;;7.30;99.90;;;;;;5054919;28;20174;-93
2021/11/23 03:06:07;;;;;;;27.48;15.95;;;7.20;99.90;;;;;;5054986;28;20653;-92
2021/11/23 03:08:33;;;;;;;27.10;18.63;;;7.20;99.90;;;;;;5045915;28;20177;-91
2021/11/23 03:11:00;;;;;;;34.50;18.35;;;7.20;99.90;;;;;;5042502;28;20232;-92
2021/11/23 03:13:25;;;;;;;34.47;19.50;;;7.20;99.90;;;;;;5040291;28;20200;-91
2021/11/23 03:15:51;;;;;;;32.80;19.50;;;7.20;99.90;;;;;;5037357;28;20185;-92
2021/11/23 03:18:17;;;;;;;34.47;19.90;;;7.10;99.90;;;;;;5036823;28;20233;-93
2021/11/23 03:20:44;;;;;;;34.13;19.70;;;7.10;99.90;;;;;;5054728;28;20429;-92
2021/11/23 03:23:10;;;;;;;31.85;19.83;;;7.10;99.90;;;;;;5054599;28;20214;-92
2021/11/23 03:25:36;;;;;;;33.03;18.67;;;7.10;99.90;;;;;;5060482;28;20197;-92
2021/11/23 03:28:02;;;;;;;32.80;19.63;;;7.10;99.90;;;;;;5054943;28;20556;-92
2021/11/23 03:30:30;;;;;;;32.50;19.73;;;7.00;99.90;;;;;;5056861;28;20449;-93
2021/11/23 03:32:57;;;;;;;35.30;19.85;;;7.00;99.90;;;;;;5036969;28;20431;-92
2021/11/23 03:35:26;;;;;;;30.45;21.33;;;6.90;99.90;;;;;;5036968;28;20189;-93
2021/11/23 03:37:52;;;;;;;30.13;18.92;;;6.90;99.90;;;;;;5036637;28;20289;-91
2021/11/23 03:40:23;;;;;;;35.58;20.13;;;6.90;99.90;;;;;;5056018;28;20185;-92
2021/11/23 03:42:49;;;;;;;32.28;18.75;;;6.90;99.90;;;;;;5058822;28;20198;-92
2021/11/23 03:45:16;;;;;;;31.88;19.48;;;6.80;99.90;;;;;;5043674;28;20193;-93
2021/11/23 03:47:42;;;;;;;30.15;18.50;;;6.80;99.90;;;;;;5040456;28;20255;-93
2021/11/23 03:50:11;;;;;;;28.67;18.57;;;6.80;99.90;;;;;;5040387;28;20217;-92
2021/11/23 03:52:36;;;;;;;31.30;20.60;;;6.80;99.90;;;;;;5059215;28;20398;-92
2021/11/23 03:55:08;;;;;;;31.27;18.17;;;6.80;99.90;;;;;;5042291;28;20204;-90
2021/11/23 03:57:34;;;;;;;33.67;21.00;;;6.70;99.90;;;;;;5041856;28;20204;-92
2021/11/23 04:00:00;;;;;;;31.97;19.10;;;6.70;99.90;;;;;;5040799;28;20189;-92
2021/11/23 04:02:26;;;;;;;31.53;19.40;;;6.70;99.90;;;;;;5040886;28;20312;-92
2021/11/23 04:04:52;;;;;;;36.53;19.85;;;6.70;99.90;;;;;;5058208;28;20177;-91
2021/11/23 04:07:18;;;;;;;28.83;18.77;;;6.60;99.90;;;;;;5040696;28;20255;-92
2021/11/23 04:09:44;;;;;;;35.53;20.67;;;6.60;99.90;;;;;;5042935;28;20264;-92
2021/11/23 04:12:11;;;;;;;32.13;19.75;;;6.60;99.90;;;;;;5040792;28;20574;-93
2021/11/23 04:14:38;;;;;;;29.52;18.30;;;6.60;99.90;;;;;;5040835;28;20196;-93
2021/11/23 04:17:04;;;;;;;35.28;19.67;;;6.60;99.90;;;;;;5042029;28;20210;-93
2021/11/23 04:19:30;;;;;;;28.95;18.73;;;6.60;99.90;;;;;;5061943;28;20308;-92
2021/11/23 04:22:00;;;;;;;32.63;20.30;;;6.70;99.90;;;;;;5053140;28;20216;-92
2021/11/23 04:24:26;;;;;;;28.95;17.30;;;6.70;99.90;;;;;;5062612;28;20476;-90
2021/11/23 04:26:52;;;;;;;31.13;19.30;;;6.70;99.90;;;;;;5046308;28;20281;-93
2021/11/23 04:29:18;;;;;;;29.03;16.80;;;6.70;99.90;;;;;;5067288;28;20427;-92
2021/11/23 04:31:44;;;;;;;31.30;18.50;;;6.70;99.90;;;;;;5043957;28;20243;-90
2021/11/23 04:34:10;;;;;;;36.53;19.40;;;6.60;99.90;;;;;;5059789;28;20253;-92
2021/11/23 04:36:36;;;;;;;34.90;20.90;;;6.60;99.90;;;;;;5057885;28;20651;-92
2021/11/23 04:39:03;;;;;;;34.67;20.42;;;6.60;99.90;;;;;;5039844;28;20201;-91
2021/11/23 04:41:29;;;;;;;35.17;19.33;;;6.60;99.90;;;;;;5057816;28;20723;-92
2021/11/23 04:43:55;;;;;;;27.52;16.27;;;6.60;99.90;;;;;;5057375;28;20635;-91
2021/11/23 04:46:21;;;;;;;32.85;18.13;;;6.60;99.90;;;;;;5058596;28;20616;-93
2021/11/23 04:48:47;;;;;;;28.23;17.07;;;6.50;99.90;;;;;;5059202;28;20169;-91
2021/11/23 04:51:14;;;;;;;31.17;16.67;;;6.50;99.90;;;;;;5040202;28;20490;-93
2021/11/23 04:53:39;;;;;;;26.02;16.15;;;6.50;99.90;;;;;;5049410;28;20201;-92
2021/11/23 04:56:05;;;;;;;32.27;17.47;;;6.50;99.90;;;;;;5067100;28;20190;-92
2021/11/23 04:58:31;;;;;;;27.13;15.53;;;6.50;99.90;;;;;;5040953;28;20185;-93
2021/11/23 05:00:58;;;;;;;27.20;16.03;;;6.50;99.90;;;;;;5039735;28;20182;-93
2021/11/23 05:03:24;;;;;;;23.15;13.85;;;6.60;99.90;;;;;;5062720;28;20647;-93
2021/11/23 05:05:49;;;;;;;28.10;15.60;;;6.60;99.90;;;;;;5039310;28;20196;-92
2021/11/23 05:08:15;;;;;;;27.87;16.00;;;6.60;99.90;;;;;;5039280;28;20472;-92
2021/11/23 05:10:41;;;;;;;25.60;14.10;;;6.70;99.90;;;;;;5039210;28;20785;-92
2021/11/23 05:13:06;;;;;;;25.50;14.87;;;6.70;99.90;;;;;;5056584;28;20194;-92
2021/11/23 05:15:32;;;;;;;28.13;15.23;;;6.80;99.90;;;;;;5041896;28;20182;-92
2021/11/23 05:17:57;;;;;;;25.63;15.03;;;6.80;99.90;;;;;;5039684;28;20228;-91
2021/11/23 05:20:23;;;;;;;22.50;14.93;;;6.80;99.90;;;;;;5039288;28;20229;-91
2021/11/23 05:22:49;;;;;;;23.02;16.08;;;6.80;99.90;;;;;;5038363;28;20240;-91
2021/11/23 05:25:15;;;;;;;22.93;13.63;;;6.80;99.90;;;;;;5047563;28;20183;-93
2021/11/23 05:27:41;;;;;;;23.53;14.87;;;6.90;99.90;;;;;;5039803;28;20198;-92
2021/11/23 05:30:07;;;;;;;26.67;15.45;;;6.90;99.90;;;;;;5041680;28;20320;-90
2021/11/23 05:32:33;;;;;;;23.38;14.32;;;6.90;99.90;;;;;;5048889;28;20554;-93
2021/11/23 05:34:59;;;;;;;21.50;13.20;;;6.90;99.90;;;;;;5032152;28;20184;-92
2021/11/23 05:37:24;;;;;;;21.53;13.33;;;6.90;99.90;;;;;;5037267;28;20206;-93
2021/11/23 05:39:50;;;;;;;24.50;15.13;;;7.00;99.90;;;;;;5037235;28;20177;-94
2021/11/23 05:42:16;;;;;;;26.00;14.23;;;7.00;99.90;;;;;;5037290;28;20651;-92
2021/11/23 05:44:41;;;;;;;21.37;13.10;;;7.10;99.90;;;;;;5039312;28;20233;-91
2021/11/23 05:47:07;;;;;;;20.90;13.77;;;7.20;99.90;;;;;;5055162;28;20198;-91
2021/11/23 05:49:33;;;;;;;29.47;13.37;;;7.30;99.90;;;;;;5038696;28;20188;-91
2021/11/23 05:51:59;;;;;;;23.63;14.47;;;7.40;99.90;;;;;;5036797;28;20217;-92
2021/11/23 05:54:25;;;;;;;22.20;14.00;;;7.50;99.90;;;;;;5036146;28;20415;-91
2021/11/23 05:56:51;;;;;;;23.90;13.90;;;7.60;99.90;;;;;;5037582;28;20761;-92
2021/11/23 05:59:17;;;;;;;23.20;13.53;;;7.70;99.90;;;;;;5059094;28;20402;-92
2021/11/23 06:01:43;;;;;;;23.27;14.50;;;7.80;99.90;;;;;;5043669;28;20765;-92
2021/11/23 06:04:10;;;;;;;24.13;13.77;;;7.90;99.90;;;;;;5044932;28;20253;-93
2021/11/23 06:06:35;;;;;;;24.80;13.77;;;8.00;99.90;;;;;;5048501;28;20745;-93
2021/11/23 06:09:05;;;;;;;20.00;12.27;;;8.00;99.90;;;;;;5033985;28;20213;-91
2021/11/23 06:11:31;;;;;;;26.15;15.40;;;8.10;99.90;;;;;;5060493;28;20253;-92
2021/11/23 06:13:56;;;;;;;23.97;14.27;;;8.10;99.90;;;;;;5055072;28;20899;-92
2021/11/23 06:16:22;;;;;;;22.23;14.60;;;8.20;99.90;;;;;;5037385;28;20205;-92
2021/11/23 06:18:47;;;;;;;22.90;14.40;;;8.10;99.90;;;;;;5026216;28;20261;-92
2021/11/23 06:21:13;;;;;;;21.73;13.87;;;8.10;99.90;;;;;;5025266;28;20206;-93
2021/11/23 06:23:39;;;;;;;20.90;12.47;;;8.00;99.90;;;;;;5030104;28;20559;-93
2021/11/23 06:26:05;;;;;;;25.47;16.67;;;8.00;99.90;;;;;;5029154;28;20191;-92
2021/11/23 06:28:33;;;;;;;24.37;13.77;;;8.00;99.90;;;;;;5028590;28;20254;-92
2021/11/23 06:30:58;;;;;;;19.35;11.48;;;8.00;99.90;;;;;;5030032;28;20476;-93
2021/11/23 06:33:24;;;;;;;19.63;12.37;;;8.00;99.90;;;;;;5015701;28;20176;-92
2021/11/23 06:35:50;;;;;;;23.30;12.70;;;8.00;99.90;;;;;;5017454;28;20190;-93
2021/11/23 06:38:16;;;;;;;19.70;11.77;;;8.10;99.90;;;;;;5025128;28;20422;-92
2021/11/23 06:40:42;;;;;;;18.00;12.03;;;8.10;99.90;;;;;;5014371;28;20522;-92
2021/11/23 06:43:09;;;;;;;19.70;12.88;;;8.00;99.90;;;;;;5021288;28;20209;-93
2021/11/23 06:45:37;;;;;;;19.00;12.43;;;8.00;99.90;;;;;;5020029;28;20186;-92
2021/11/23 06:48:04;;;;;;;21.98;12.50;;;8.00;99.90;;;;;;5039787;28;20206;-92
2021/11/23 06:50:33;;;;;;;19.27;11.88;;;7.90;99.90;;;;;;5027479;28;20238;-93
2021/11/23 06:53:03;;;;;;;23.73;14.38;;;7.90;99.90;;;;;;5021918;28;20195;-91
2021/11/23 06:55:31;;;;;;;20.80;11.77;;;7.90;99.90;;;;;;5024368;28;20208;-92
2021/11/23 06:57:57;;;;;;;19.90;12.52;;;7.80;99.90;;;;;;5020767;28;20210;-93
2021/11/23 07:00:23;;;;;;;21.03;14.50;;;7.80;99.90;;;;;;5034036;28;20178;-91
2021/11/23 07:02:48;;;;;;;22.60;14.47;;;7.90;99.90;;;;;;5028579;28;20455;-92
2021/11/23 07:05:14;;;;;;;20.43;12.40;;;7.80;99.90;;;;;;5029947;28;20444;-92
2021/11/23 07:07:40;;;;;;;20.63;13.73;;;7.90;99.90;;;;;;5023268;28;20194;-92
2021/11/23 07:10:07;;;;;;;21.40;12.93;;;7.90;99.90;;;;;;5023005;28;20438;-92
2021/11/23 07:12:33;;;;;;;21.20;11.18;;;7.90;99.90;;;;;;5032547;28;20410;-90
2021/11/23 07:14:59;;;;;;;20.20;12.00;;;7.90;99.90;;;;;;5025901;28;20185;-90
2021/11/23 07:17:24;;;;;;;21.40;12.20;;;7.90;99.90;;;;;;5024416;28;20706;-90
2021/11/23 07:19:50;;;;;;;19.07;11.70;;;7.80;99.90;;;;;;5038014;28;20236;-91
2021/11/23 07:22:16;;;;;;;21.87;13.23;;;7.80;99.90;;;;;;5029790;28;20296;-90
2021/11/23 07:24:42;;;;;;;19.35;11.80;;;7.80;99.90;;;;;;5035843;28;20181;-90
2021/11/23 07:27:08;;;;;;;22.07;12.50;;;7.80;99.90;;;;;;5048446;28;20702;-91
2021/11/23 07:29:34;;;;;;;17.93;12.10;;;7.80;99.90;;;;;;5021402;28;20209;-89
2021/11/23 07:31:59;;;;;;;21.17;13.53;;;7.80;99.90;;;;;;5019492;28;20226;-90
2021/11/23 07:34:25;;;;;;;22.80;13.90;;;7.80;99.90;;;;;;5036994;28;20389;-90
2021/11/23 07:36:51;;;;;;;23.90;14.07;;;7.80;99.90;;;;;;5026732;28;20207;-90
2021/11/23 07:39:16;;;;;;;19.03;11.93;;;7.80;99.90;;;;;;5050637;28;20217;-90
2021/11/23 07:41:42;;;;;;;19.53;12.20;;;7.80;99.90;;;;;;5041266;28;20678;-93
2021/11/23 07:44:10;;;;;;;20.90;11.85;;;7.80;99.90;;;;;;5042469;28;20205;-92
2021/11/23 07:46:36;;;;;;;20.42;12.85;;;7.90;99.90;;;;;;5032722;28;20208;-91
2021/11/23 07:49:03;;;;;;;19.65;12.80;;;7.90;99.90;;;;;;5027768;28;20217;-92
2021/11/23 07:51:29;;;;;;;18.05;12.35;;;8.00;99.90;;;;;;5024789;28;20974;-91
2021/11/23 07:53:54;;;;;;;21.70;13.17;;;8.00;99.90;;;;;;5035585;28;20193;-91
2021/11/23 07:56:20;;;;;;;20.20;12.50;;;8.10;99.90;;;;;;5021101;28;20301;-92
2021/11/23 07:58:46;;;;;;;20.43;12.93;;;8.20;99.90;;;;;;5026918;28;20180;-90
2021/11/23 08:01:12;;;;;;;14.10;10.33;;;8.50;99.90;;;;;;5026422;28;20432;-91
2021/11/23 08:03:39;;;;;;;14.65;9.88;;;8.90;99.90;;;;;;5027971;28;20639;-91
2021/11/23 08:06:05;;;;;;;17.92;11.75;;;9.10;99.90;;;;;;5031587;28;20523;-92
2021/11/23 08:08:30;;;;;;;21.60;14.70;;;9.30;99.90;;;;;;5024050;28;20324;-92
2021/11/23 08:10:58;;;;;;;18.40;11.97;;;9.40;99.90;;;;;;5032073;28;20991;-92
2021/11/23 08:13:24;;;;;;;21.17;13.40;;;9.40;99.90;;;;;;5048163;28;20398;-92
2021/11/23 08:15:51;;;;;;;16.53;11.63;;;9.50;99.90;;;;;;5035899;28;20186;-91
2021/11/23 08:18:16;;;;;;;15.52;10.82;;;9.80;99.90;;;;;;5041753;28;20448;-92
2021/11/23 08:20:43;;;;;;;14.57;10.27;;;10.20;99.90;;;;;;5047906;28;20187;-90
2021/11/23 08:23:09;;;;;;;13.38;9.43;;;11.00;99.90;;;;;;5023632;28;20213;-90
2021/11/23 08:25:38;;;;;;;11.53;8.23;;;12.00;99.90;;;;;;5024201;28;20556;-91
2021/11/23 08:28:04;;;;;;;15.75;11.23;;;13.00;99.90;;;;;;5023613;28;20479;-93
2021/11/23 08:30:30;;;;;;;13.53;9.77;;;13.80;99.90;;;;;;5040920;28;20209;-92
2021/11/23 08:32:56;;;;;;;16.30;11.10;;;14.50;99.90;;;;;;5036735;28;20435;-91
2021/11/23 08:35:22;;;;;;;10.60;8.00;;;15.30;99.90;;;;;;5048200;28;20969;-91
2021/11/23 08:37:48;;;;;;;18.70;13.10;;;15.90;99.90;;;;;;5046110;28;20207;-91
2021/11/23 08:40:14;;;;;;;16.00;10.70;;;16.30;99.90;;;;;;5059135;28;20189;-92
2021/11/23 08:42:40;;;;;;;17.53;11.17;;;16.60;99.90;;;;;;5035721;28;20446;-91
2021/11/23 08:45:07;;;;;;;13.13;9.00;;;16.90;99.90;;;;;;5022322;28;20467;-90
2021/11/23 08:47:33;;;;;;;10.67;8.37;;;16.90;99.90;;;;;;5040039;28;20424;-89
2021/11/23 08:50:00;;;;;;;13.63;8.70;;;16.90;99.90;;;;;;5036385;28;20401;-92
2021/11/23 08:52:26;;;;;;;14.87;9.17;;;16.90;99.90;;;;;;5043164;28;21048;-91
2021/11/23 08:54:55;;;;;;;14.23;9.93;;;16.80;99.90;;;;;;5032182;28;20541;-93
2021/11/23 08:57:22;;;;;;;9.30;6.90;;;16.70;99.90;;;;;;5032423;28;20434;-92
2021/11/23 08:59:48;;;;;;;11.70;7.90;;;16.60;99.90;;;;;;5045953;28;20394;-91
2021/11/23 09:02:15;;;;;;;9.70;7.13;;;16.70;99.90;;;;;;5027392;28;20474;-92
2021/11/23 09:04:42;;;;;;;10.70;7.30;;;16.90;99.90;;;;;;5016230;28;20424;-92
2021/11/23 09:07:11;;;;;;;11.70;7.83;;;17.10;98.40;;;;;;5047075;28;20465;-92
2021/11/23 09:09:38;;;;;;;10.53;7.70;;;17.40;99.90;;;;;;5026373;28;20430;-91
2021/11/23 09:12:05;;;;;;;9.83;7.50;;;17.40;98.00;;;;;;5026065;28;20507;-91
2021/11/23 09:14:33;;;;;;;11.87;8.80;;;17.50;97.40;;;;;;5031987;28;20510;-91
2021/11/23 09:17:00;;;;;;;19.60;12.77;;;17.50;96.70;;;;;;5027536;28;20459;-92
2021/11/23 09:19:26;;;;;;;12.50;9.00;;;17.40;96.70;;;;;;5022771;28;20504;-93
2021/11/23 09:21:53;;;;;;;11.70;9.70;;;17.40;96.80;;;;;;5047115;28;20482;-91
2021/11/23 09:24:20;;;;;;;12.00;9.83;;;17.50;95.40;;;;;;5032594;28;20469;-91
2021/11/23 09:26:46;;;;;;;13.17;9.30;;;17.80;95.20;;;;;;5039602;28;20512;-91
2021/11/23 09:29:15;;;;;;;10.63;8.60;;;18.20;94.60;;;;;;5049074;28;20830;-91
2021/11/23 09:31:42;;;;;;;9.10;7.27;;;18.50;93.90;;;;;;5024996;28;20565;-93
2021/11/23 09:34:07;;;;;;;10.47;8.80;;;18.80;94.40;;;;;;5021170;28;20422;-93
2021/11/23 09:36:33;;;;;;;11.63;7.80;;;18.90;94.10;;;;;;5021769;28;20494;-91
2021/11/23 09:38:59;;;;;;;10.33;7.70;;;19.10;91.80;;;;;;5031881;28;20174;-91
2021/11/23 09:41:25;;;;;;;10.23;7.40;;;19.20;91.70;;;;;;5027370;28;20311;-92
2021/11/23 09:43:51;;;;;;;10.30;7.80;;;19.10;91.20;;;;;;5040997;28;20431;-91
2021/11/23 09:46:17;;;;;;;10.13;7.43;;;19.00;91.10;;;;;;5041085;28;20889;-91
2021/11/23 09:48:45;;;;;;;9.43;7.53;;;18.90;90.90;;;;;;5028441;28;20439;-92
2021/11/23 09:51:23;;;;;;;9.90;6.93;;;18.80;90.60;;;;;;5048917;28;20229;-92
2021/11/23 09:53:49;;;;;;;10.07;7.20;;;18.50;90.00;;;;;;5033682;28;20504;-91
2021/11/23 09:56:15;;;;;;;9.13;7.57;;;18.30;91.30;;;;;;5036164;28;20537;-91
2021/11/23 09:58:41;;;;;;;9.30;6.40;;;18.00;91.10;;;;;;5032079;28;20510;-92
2021/11/23 10:01:09;;;;;;;9.60;8.20;;;17.70;93.20;;;;;;5027019;28;20280;-92
2021/11/23 10:03:35;;;;;;;8.80;6.70;;;17.50;94.60;;;;;;5053370;28;20397;-91
2021/11/23 10:06:20;;;;;;;8.97;7.20;;;17.30;96.30;;;;;;5031404;28;20490;-91
2021/11/23 10:08:48;;;;;;;9.90;6.97;;;17.10;96.20;;;;;;5026661;28;20464;-92
2021/11/23 10:11:45;;;;;;;8.50;7.13;;;16.90;97.20;;;;;;5031794;28;20486;-91
2021/11/23 10:14:13;;;;;;;10.20;6.90;;;16.70;97.70;;;;;;5036070;28;20415;-92
2021/11/23 10:16:45;;;;;;;10.93;6.60;;;16.50;98.50;;;;;;5030307;28;20459;-91
2021/11/23 10:19:14;;;;;;;8.40;7.27;;;16.30;99.50;;;;;;5021904;28;21078;-89
2021/11/23 10:21:53;;;;;;;10.37;7.33;;;16.20;99.40;;;;;;5021556;28;20467;-91
2021/11/23 10:24:19;;;;;;;9.27;7.53;;;16.00;95.10;;;;;;5026002;28;20435;-92
2021/11/23 10:26:45;;;;;;;8.60;6.40;;;15.80;94.00;;;;;;5022514;28;20465;-92
2021/11/23 10:29:11;;;;;;;8.37;6.43;;;15.70;93.60;;;;;;5015069;28;20427;-90
2021/11/23 10:31:43;;;;;;;12.10;7.40;;;15.60;93.60;;;;;;5023750;28;20287;-91
2021/11/23 10:34:15;;;;;;;10.30;7.07;;;15.40;93.90;;;;;;5026144;28;20241;-90
2021/11/23 10:36:44;;;;;;;11.30;8.30;;;15.20;93.70;;;;;;5018975;28;20504;-91
2021/11/23 10:39:12;;;;;;;9.70;7.63;;;15.10;94.10;;;;;;5038644;28;21205;-90
2021/11/23 10:41:42;;;;;;;15.07;10.77;;;15.00;94.60;;;;;;5022453;28;20471;-90
2021/11/23 10:44:24;;;;;;;11.70;7.87;;;14.90;94.50;;;;;;5036793;28;20518;-91
2021/11/23 10:46:56;;;;;;;10.87;8.07;;;14.90;94.50;;;;;;5019185;28;20482;-92
2021/11/23 10:49:32;;;;;;;7.60;6.47;;;14.70;94.00;;;;;;5047637;28;20413;-90
2021/11/23 10:51:59;;;;;;;10.40;7.87;;;14.60;93.30;;;;;;5031516;28;20470;-91
2021/11/23 10:54:29;;;;;;;8.80;6.70;;;14.60;93.80;;;;;;5042258;28;20447;-92
2021/11/23 10:56:57;;;;;;;10.97;8.00;;;14.50;93.70;;;;;;5021970;28;20454;-92
2021/11/23 10:59:23;;;;;;;13.47;6.73;;;14.30;93.60;;;;;;5026087;28;20957;-92
2021/11/23 11:01:49;;;;;;;9.70;7.13;;;14.20;93.80;;;;;;5040072;28;20406;-92
2021/11/23 11:04:16;;;;;;;11.30;7.60;;;14.10;93.70;;;;;;5039272;28;20669;-91
2021/11/23 11:06:42;;;;;;;10.20;7.37;;;14.10;93.90;;;;;;5041639;28;20410;-92
2021/11/23 11:09:08;;;;;;;11.73;7.70;;;14.00;94.30;;;;;;5034850;28;21189;-91
2021/11/23 11:11:35;;;;;;;11.10;8.40;;;14.00;94.40;;;;;;5025032;28;20529;-90
2021/11/23 11:14:02;;;;;;;10.40;8.03;;;13.90;94.40;;;;;;5029499;28;20445;-91
2021/11/23 11:16:28;;;;;;;10.10;8.23;;;13.90;94.30;;;;;;5047408;28;20429;-89
2021/11/23 11:19:12;;;;;;;11.20;7.97;;;13.80;94.50;;;;;;5033357;28;20465;-90
2021/11/23 11:22:05;;;;;;;10.00;8.27;;;13.80;94.00;;;;;;5043261;28;20428;-91
2021/11/23 11:27:22;;;;;;;9.83;7.70;;;13.80;94.20;;;;;;5048062;28;20470;-92
2021/11/23 11:29:47;;;;;;;10.60;7.40;;;13.90;93.60;;;;;;5043408;28;20480;-92
2021/11/23 11:32:32;;;;;;;10.77;7.33;;;13.90;93.40;;;;;;5024536;28;20852;-91
2021/11/23 11:35:26;;;;;;;10.57;7.67;;;14.00;93.50;;;;;;5035127;28;20207;-93
2021/11/23 11:38:00;;;;;;;10.00;7.80;;;14.00;93.20;;;;;;5023064;28;20469;-92
2021/11/23 11:40:27;;;;;;;10.87;7.67;;;14.00;93.20;;;;;;5020763;28;20456;-91
2021/11/23 11:42:59;;;;;;;8.93;6.97;;;14.00;93.30;;;;;;5027395;28;20463;-90
2021/11/23 11:45:37;;;;;;;11.40;8.27;;;14.00;93.50;;;;;;5033319;28;20464;-91
2021/11/23 11:48:35;;;;;;;9.30;7.27;;;14.00;93.40;;;;;;5029185;28;20506;-92
2021/11/23 11:51:05;;;;;;;11.07;7.67;;;14.00;93.10;;;;;;5024120;28;20997;-92
2021/11/23 11:53:50;;;;;;;11.10;7.87;;;14.00;93.40;;;;;;5029559;28;20447;-91
2021/11/23 11:56:39;;;;;;;10.10;7.57;;;14.00;93.40;;;;;;5026352;28;20461;-91
2021/11/23 11:59:27;;;;;;;10.47;7.60;;;14.00;93.40;;;;;;5023684;28;21015;-91
2021/11/23 12:01:53;;;;;;;11.43;8.07;;;14.00;93.60;;;;;;5028303;28;20448;-92
2021/11/23 12:04:22;;;;;;;10.27;7.60;;;14.10;94.40;;;;;;5036010;28;20481;-92
2021/11/23 12:06:54;;;;;;;10.13;7.87;;;14.10;93.50;;;;;;5030003;28;20887;-92
2021/11/23 12:09:35;;;;;;;9.50;7.23;;;14.10;93.20;;;;;;5033734;28;20417;-91
2021/11/23 12:12:19;;;;;;;14.13;9.70;;;14.00;93.70;;;;;;5025678;28;20846;-92
2021/11/23 12:14:56;;;;;;;11.37;8.27;;;14.00;93.50;;;;;;5038925;28;20414;-91
2021/11/23 12:17:50;;;;;;;9.93;7.43;;;13.90;93.90;;;;;;5051839;28;20487;-91
2021/11/23 12:20:32;;;;;;;9.07;7.40;;;13.90;94.10;;;;;;5036351;28;20681;-92
2021/11/23 12:23:19;;;;;;;8.90;6.97;;;13.80;94.60;;;;;;5018033;28;21178;-92
2021/11/23 12:25:52;;;;;;;10.20;7.80;;;13.80;94.70;;;;;;5032408;28;20467;-93
2021/11/23 12:28:19;;;;;;;12.27;8.70;;;13.80;94.80;;;;;;5046275;28;20430;-93
2021/11/23 12:30:45;;;;;;;11.57;8.37;;;13.80;95.20;;;;;;5045691;28;20455;-93
2021/11/23 12:33:10;;;;;;;11.90;8.73;;;13.80;95.40;;;;;;5037437;28;20465;-93
2021/11/23 12:35:40;;;;;;;15.73;9.90;;;13.80;95.30;;;;;;5030016;28;20174;-91
2021/11/23 12:38:06;;;;;;;14.50;10.27;;;13.80;95.50;;;;;;5052928;28;20490;-93
2021/11/23 12:40:32;;;;;;;11.27;8.80;;;13.80;95.50;;;;;;5034842;28;20466;-93
2021/11/23 12:43:05;;;;;;;14.80;10.30;;;13.80;95.60;;;;;;5044510;28;20828;-94